createdAt,value
2022-12-26T00:00:59.284Z,21.77
2022-12-26T00:02:10.600Z,22.56
2022-12-26T00:03:12.500Z,22.51
2022-12-26T00:04:51.680Z,21.29
2022-12-26T00:05:38.896Z,22.03
2022-12-26T00:06:41.296Z,21.85
2022-12-26T00:07:43.073Z,23.41
2022-12-26T00:08:45.363Z,22.66
2022-12-26T00:09:47.219Z,25.72
2022-12-26T00:10:49.138Z,27.08
2022-12-26T00:11:51.055Z,26.58
2022-12-26T00:12:52.952Z,26.05
2022-12-26T00:14:00.259Z,26.40
2022-12-26T00:15:02.329Z,23.85
2022-12-26T00:16:16.061Z,23.90
2022-12-26T00:17:17.929Z,23.43
2022-12-26T00:18:20.064Z,22.75
2022-12-26T00:19:21.977Z,22.65
2022-12-26T00:20:23.894Z,23.53
2022-12-26T00:21:27.518Z,23.38
2022-12-26T00:22:29.281Z,22.97
2022-12-26T00:23:33.470Z,22.62
2022-12-26T00:24:35.240Z,20.88
2022-12-26T00:25:37.027Z,21.42
2022-12-26T00:26:39.202Z,22.14
2022-12-26T00:27:41.009Z,22.79
2022-12-26T00:28:44.774Z,23.96
2022-12-26T00:29:48.071Z,23.69
2022-12-26T00:30:50.413Z,22.71
2022-12-26T00:31:52.336Z,23.65
2022-12-26T00:32:54.321Z,24.34
2022-12-26T00:33:56.571Z,23.29
2022-12-26T00:34:58.395Z,23.79
2022-12-26T00:36:07.724Z,24.51
2022-12-26T00:37:09.735Z,22.90
2022-12-26T00:38:11.700Z,22.92
2022-12-26T00:39:13.544Z,21.73
2022-12-26T00:40:15.582Z,22.51
2022-12-26T00:41:20.605Z,22.98
2022-12-26T00:42:22.701Z,22.47
2022-12-26T00:43:24.586Z,22.89
2022-12-26T00:44:26.754Z,24.34
2022-12-26T00:45:28.778Z,23.45
2022-12-26T00:46:30.852Z,22.03
2022-12-26T00:47:33.325Z,21.33
2022-12-26T00:48:35.404Z,21.39
2022-12-26T00:50:11.785Z,22.10
2022-12-26T00:50:59.958Z,21.72
2022-12-26T00:52:01.869Z,22.13
2022-12-26T00:53:03.718Z,21.50
2022-12-26T00:54:05.540Z,20.55
2022-12-26T00:55:08.140Z,21.68
2022-12-26T00:56:10.400Z,21.07
2022-12-26T00:57:12.343Z,21.40
2022-12-26T00:58:14.161Z,21.54
2022-12-26T00:59:16.146Z,21.66
2022-12-26T01:00:18.604Z,22.24
2022-12-26T01:01:23.261Z,22.69
2022-12-26T01:02:41.010Z,22.25
2022-12-26T01:03:45.141Z,20.88
2022-12-26T01:04:47.100Z,21.17
2022-12-26T01:05:51.928Z,20.88
2022-12-26T01:06:53.863Z,21.43
2022-12-26T01:08:21.059Z,20.25
2022-12-26T01:09:18.084Z,21.23
2022-12-26T01:10:20.262Z,20.00
2022-12-26T01:11:41.004Z,19.65
2022-12-26T01:12:43.252Z,20.78
2022-12-26T01:13:45.101Z,19.57
2022-12-26T01:14:47.231Z,21.26
2022-12-26T01:15:50.946Z,21.61
2022-12-26T01:16:52.721Z,21.00
2022-12-26T01:17:54.560Z,20.15
2022-12-26T01:18:56.355Z,19.76
2022-12-26T01:19:58.813Z,20.31
2022-12-26T01:21:08.079Z,21.32
2022-12-26T01:22:09.868Z,20.75
2022-12-26T01:23:13.082Z,20.88
2022-12-26T01:24:14.950Z,20.28
2022-12-26T01:25:16.892Z,20.94
2022-12-26T01:26:20.204Z,20.09
2022-12-26T01:27:23.274Z,19.75
2022-12-26T01:28:25.224Z,19.87
2022-12-26T01:29:27.051Z,20.71
2022-12-26T01:30:28.915Z,20.11
2022-12-26T01:31:30.912Z,21.14
2022-12-26T01:32:32.998Z,22.11
2022-12-26T01:33:34.894Z,20.92
2022-12-26T01:34:36.846Z,19.96
2022-12-26T01:35:38.828Z,18.80
2022-12-26T01:36:40.747Z,19.28
2022-12-26T01:37:43.013Z,19.21
2022-12-26T01:38:45.648Z,18.28
2022-12-26T01:39:47.593Z,18.49
2022-12-26T01:41:10.209Z,20.70
2022-12-26T01:42:18.211Z,17.64
2022-12-26T01:43:20.294Z,19.36
2022-12-26T01:44:59.814Z,18.44
2022-12-26T01:46:01.745Z,19.32
2022-12-26T01:47:03.691Z,19.58
2022-12-26T01:48:34.662Z,19.21
2022-12-26T01:49:43.450Z,19.01
2022-12-26T01:50:55.943Z,19.21
2022-12-26T01:52:03.615Z,18.53
2022-12-26T01:53:34.089Z,17.59
2022-12-26T01:54:42.610Z,18.44
2022-12-26T01:55:52.707Z,18.04
2022-12-26T01:56:54.758Z,17.23
2022-12-26T01:58:07.220Z,18.92
2022-12-26T01:59:18.464Z,17.16
2022-12-26T02:00:20.627Z,19.12
2022-12-26T02:01:29.295Z,18.56
2022-12-26T02:02:52.128Z,18.61
2022-12-26T02:04:13.223Z,17.57
2022-12-26T02:05:33.932Z,18.99
2022-12-26T02:06:37.612Z,18.86
2022-12-26T02:07:44.506Z,19.30
2022-12-26T02:08:46.788Z,18.89
2022-12-26T02:09:48.852Z,18.58
2022-12-26T02:11:14.653Z,18.29
2022-12-26T02:12:34.720Z,18.14
2022-12-26T02:13:41.203Z,18.40
2022-12-26T02:14:43.920Z,19.28
2022-12-26T02:15:46.962Z,18.87
2022-12-26T02:16:49.041Z,17.44
2022-12-26T02:17:51.200Z,18.98
2022-12-26T02:18:53.006Z,18.75
2022-12-26T02:20:17.460Z,18.97
2022-12-26T02:21:38.057Z,17.85
2022-12-26T02:22:58.819Z,18.65
2022-12-26T02:24:31.447Z,19.81
2022-12-26T02:25:59.028Z,20.21
2022-12-26T02:27:10.356Z,20.13
2022-12-26T02:28:41.454Z,19.94
2022-12-26T02:30:05.560Z,19.51
2022-12-26T02:31:32.145Z,20.38
2022-12-26T02:32:49.552Z,19.55
2022-12-26T02:34:13.076Z,19.08
2022-12-26T02:35:31.463Z,19.61
2022-12-26T02:36:52.256Z,18.35
2022-12-26T02:38:24.124Z,19.98
2022-12-26T02:39:55.260Z,18.12
2022-12-26T02:41:42.025Z,19.69
2022-12-26T02:43:03.444Z,18.91
2022-12-26T02:44:45.912Z,18.89
2022-12-26T02:46:29.617Z,18.38
2022-12-26T02:47:53.571Z,18.25
2022-12-26T02:49:17.076Z,19.36
2022-12-26T02:50:56.251Z,19.50
2022-12-26T02:52:35.816Z,19.09
2022-12-26T02:54:37.779Z,19.17
2022-12-26T02:56:05.849Z,19.96
2022-12-26T02:57:38.542Z,20.30
2022-12-26T02:59:19.922Z,20.69
2022-12-26T03:01:07.304Z,19.96
2022-12-26T03:02:55.463Z,20.36
2022-12-26T03:04:27.826Z,19.97
2022-12-26T03:05:59.669Z,20.69
2022-12-26T03:07:30.679Z,20.20
2022-12-26T03:09:02.453Z,19.25
2022-12-26T03:10:34.983Z,20.43
2022-12-26T03:12:00.563Z,20.38
2022-12-26T03:13:10.930Z,19.57
2022-12-26T03:14:26.351Z,19.40
2022-12-26T03:15:57.465Z,20.38
2022-12-26T03:17:20.090Z,19.67
2022-12-26T03:18:58.009Z,19.43
2022-12-26T03:19:59.584Z,19.63
2022-12-26T03:21:03.337Z,19.86
2022-12-26T03:22:28.665Z,19.46
2022-12-26T03:23:32.205Z,20.14
2022-12-26T03:24:55.151Z,19.74
2022-12-26T03:26:26.492Z,20.21
2022-12-26T03:27:28.943Z,20.10
2022-12-26T03:28:31.543Z,19.40
2022-12-26T03:29:52.293Z,19.72
2022-12-26T03:30:58.155Z,19.06
2022-12-26T03:32:02.914Z,19.06
2022-12-26T03:33:05.353Z,18.94
2022-12-26T03:34:19.949Z,19.26
2022-12-26T03:35:21.978Z,20.19
2022-12-26T03:36:51.916Z,20.46
2022-12-26T03:38:05.091Z,19.36
2022-12-26T03:39:19.643Z,19.32
2022-12-26T03:40:53.168Z,21.16
2022-12-26T03:42:13.649Z,19.22
2022-12-26T03:43:59.455Z,19.52
2022-12-26T03:45:50.757Z,18.57
2022-12-26T03:47:26.920Z,20.09
2022-12-26T03:49:13.103Z,19.06
2022-12-26T03:50:57.050Z,20.71
2022-12-26T03:52:42.510Z,20.04
2022-12-26T03:54:35.557Z,20.06
2022-12-26T03:56:17.156Z,18.90
2022-12-26T03:57:43.504Z,19.69
2022-12-26T03:59:17.959Z,20.36
2022-12-26T04:00:38.898Z,19.23
2022-12-26T04:02:05.977Z,19.33
2022-12-26T04:03:32.822Z,17.92
2022-12-26T04:05:01.906Z,19.27
2022-12-26T04:07:11.798Z,20.01
2022-12-26T04:08:46.198Z,19.78
2022-12-26T04:10:17.787Z,19.22
2022-12-26T04:11:42.307Z,18.97
2022-12-26T04:13:09.325Z,19.04
2022-12-26T04:14:40.590Z,19.92
2022-12-26T04:16:15.139Z,19.44
2022-12-26T04:17:54.731Z,20.04
2022-12-26T04:19:24.905Z,19.38
2022-12-26T04:21:06.963Z,19.81
2022-12-26T04:22:42.170Z,19.10
2022-12-26T04:24:08.391Z,19.46
2022-12-26T04:26:06.865Z,19.67
2022-12-26T04:27:33.676Z,20.49
2022-12-26T04:28:54.960Z,18.76
2022-12-26T04:30:15.715Z,20.10
2022-12-26T04:31:47.456Z,18.67
2022-12-26T04:33:11.753Z,21.02
2022-12-26T04:34:47.291Z,20.11
2022-12-26T04:36:15.716Z,20.80
2022-12-26T04:37:44.881Z,20.66
2022-12-26T04:39:15.821Z,19.45
2022-12-26T04:40:48.584Z,19.50
2022-12-26T04:42:13.271Z,20.77
2022-12-26T04:43:47.324Z,20.14
2022-12-26T04:44:56.300Z,19.43
2022-12-26T04:45:58.588Z,19.37
2022-12-26T04:47:00.506Z,20.55
2022-12-26T04:48:21.524Z,20.15
2022-12-26T04:49:42.157Z,20.52
2022-12-26T04:50:53.825Z,19.91
2022-12-26T04:51:58.684Z,19.78
2022-12-26T04:53:01.161Z,20.49
2022-12-26T04:54:03.859Z,19.84
2022-12-26T04:55:06.687Z,20.03
2022-12-26T04:56:11.278Z,19.83
2022-12-26T04:57:13.495Z,20.40
2022-12-26T04:58:17.968Z,21.05
2022-12-26T04:59:21.943Z,22.31
2022-12-26T05:00:27.956Z,20.45
2022-12-26T05:01:48.617Z,20.22
2022-12-26T05:03:18.294Z,20.04
2022-12-26T05:04:40.664Z,20.38
2022-12-26T05:06:05.033Z,20.56
2022-12-26T05:07:36.779Z,20.34
2022-12-26T05:09:01.133Z,20.83
2022-12-26T05:10:05.567Z,19.90
2022-12-26T05:11:07.578Z,20.05
2022-12-26T05:12:10.263Z,21.12
2022-12-26T05:13:12.175Z,20.29
2022-12-26T05:14:14.127Z,20.96
2022-12-26T05:15:16.701Z,20.24
2022-12-26T05:16:37.997Z,21.43
2022-12-26T05:17:58.897Z,19.53
2022-12-26T05:19:19.572Z,20.09
2022-12-26T05:20:40.165Z,21.81
2022-12-26T05:22:01.081Z,20.34
2022-12-26T05:23:23.615Z,21.10
2022-12-26T05:24:52.121Z,20.57
2022-12-26T05:26:13.317Z,20.81
2022-12-26T05:27:35.609Z,20.67
2022-12-26T05:28:43.658Z,22.18
2022-12-26T05:29:45.610Z,20.41
2022-12-26T05:30:47.670Z,20.52
2022-12-26T05:31:49.585Z,20.64
2022-12-26T05:33:10.345Z,20.74
2022-12-26T05:34:15.918Z,20.98
2022-12-26T05:35:18.507Z,20.95
2022-12-26T05:36:27.760Z,22.29
2022-12-26T05:37:29.603Z,22.08
2022-12-26T05:38:31.585Z,21.48
2022-12-26T05:39:34.043Z,20.58
2022-12-26T05:40:36.465Z,21.50
2022-12-26T05:41:40.567Z,21.35
2022-12-26T05:42:42.593Z,22.23
2022-12-26T05:43:44.537Z,21.80
2022-12-26T05:44:48.236Z,21.42
2022-12-26T05:45:50.604Z,21.49
2022-12-26T05:46:52.938Z,22.71
2022-12-26T05:48:02.499Z,25.89
2022-12-26T05:49:05.747Z,33.89
2022-12-26T05:50:09.520Z,44.23
2022-12-26T05:51:12.546Z,77.99
2022-12-26T05:52:14.442Z,58.84
2022-12-26T05:53:16.689Z,37.04
2022-12-26T05:54:19.040Z,30.58
2022-12-26T05:55:24.041Z,27.43
2022-12-26T05:56:25.964Z,25.81
2022-12-26T05:57:27.848Z,24.69
2022-12-26T05:58:30.084Z,26.75
2022-12-26T05:59:32.130Z,26.78
2022-12-26T06:00:34.462Z,24.49
2022-12-26T06:01:36.600Z,26.16
2022-12-26T06:02:39.169Z,29.77
2022-12-26T06:03:47.339Z,27.27
2022-12-26T06:04:49.640Z,28.57
2022-12-26T06:05:51.804Z,26.66
2022-12-26T06:06:56.481Z,24.46
2022-12-26T06:07:58.444Z,26.49
2022-12-26T06:09:00.555Z,24.06
2022-12-26T06:10:02.632Z,23.79
2022-12-26T06:11:06.796Z,24.52
2022-12-26T06:12:08.771Z,25.07
2022-12-26T06:13:10.697Z,22.29
2022-12-26T06:14:12.794Z,22.30
2022-12-26T06:15:15.494Z,24.14
2022-12-26T06:16:19.348Z,23.11
2022-12-26T06:17:21.429Z,22.41
2022-12-26T06:18:23.327Z,21.21
2022-12-26T06:19:25.240Z,22.15
2022-12-26T06:20:27.107Z,22.02
2022-12-26T06:21:29.115Z,21.60
2022-12-26T06:22:31.973Z,22.35
2022-12-26T06:23:35.721Z,22.87
2022-12-26T06:24:37.754Z,22.03
2022-12-26T06:25:39.696Z,22.80
2022-12-26T06:26:42.435Z,23.96
2022-12-26T06:27:44.453Z,22.52
2022-12-26T06:28:47.756Z,20.17
2022-12-26T06:29:50.079Z,21.38
2022-12-26T06:30:53.036Z,21.40
2022-12-26T06:31:55.159Z,21.53
2022-12-26T06:32:57.345Z,21.61
2022-12-26T06:34:01.507Z,20.85
2022-12-26T06:35:03.515Z,20.38
2022-12-26T06:36:09.108Z,21.68
2022-12-26T06:37:11.228Z,22.33
2022-12-26T06:38:13.423Z,20.63
2022-12-26T06:39:15.375Z,21.57
2022-12-26T06:40:17.512Z,20.79
2022-12-26T06:41:22.456Z,20.61
2022-12-26T06:42:25.127Z,21.43
2022-12-26T06:43:27.167Z,22.15
2022-12-26T06:44:28.975Z,20.87
2022-12-26T06:45:30.875Z,21.48
2022-12-26T06:46:33.435Z,22.41
2022-12-26T06:47:35.803Z,22.52
2022-12-26T06:48:42.047Z,21.57
2022-12-26T06:49:44.575Z,21.31
2022-12-26T06:50:46.452Z,22.10
2022-12-26T06:51:48.787Z,21.82
2022-12-26T06:52:50.845Z,21.75
2022-12-26T06:53:54.003Z,21.32
2022-12-26T06:54:56.331Z,21.90
2022-12-26T06:56:06.747Z,21.75
2022-12-26T06:57:08.691Z,21.34
2022-12-26T06:58:11.102Z,21.16
2022-12-26T06:59:13.031Z,21.50
2022-12-26T07:00:15.769Z,20.30
2022-12-26T07:01:19.677Z,20.23
2022-12-26T07:02:22.223Z,19.93
2022-12-26T07:03:26.228Z,19.85
2022-12-26T07:04:28.375Z,20.13
2022-12-26T07:05:30.452Z,20.57
2022-12-26T07:06:35.346Z,18.62
2022-12-26T07:07:37.328Z,19.90
2022-12-26T07:08:39.563Z,19.37
2022-12-26T07:09:41.498Z,19.08
2022-12-26T07:10:43.288Z,20.03
2022-12-26T07:11:48.298Z,19.16
2022-12-26T07:12:50.375Z,18.78
2022-12-26T07:13:54.528Z,19.02
2022-12-26T07:15:01.371Z,18.71
2022-12-26T07:16:04.354Z,18.37
2022-12-26T07:17:06.837Z,17.65
2022-12-26T07:18:08.665Z,18.17
2022-12-26T07:19:13.119Z,18.17
2022-12-26T07:20:15.042Z,18.68
2022-12-26T07:21:17.575Z,18.69
2022-12-26T07:22:19.852Z,18.55
2022-12-26T07:23:22.022Z,18.04
2022-12-26T07:24:24.131Z,18.62
2022-12-26T07:25:26.086Z,18.42
2022-12-26T07:26:28.034Z,16.99
2022-12-26T07:27:29.905Z,17.31
2022-12-26T07:28:32.004Z,18.74
2022-12-26T07:29:34.479Z,17.10
2022-12-26T07:30:36.384Z,16.67
2022-12-26T07:31:39.093Z,16.89
2022-12-26T07:32:41.075Z,16.74
2022-12-26T07:33:43.090Z,17.42
2022-12-26T07:34:45.305Z,17.50
2022-12-26T07:35:47.249Z,16.83
2022-12-26T07:36:49.590Z,15.47
2022-12-26T07:37:52.298Z,15.47
2022-12-26T07:38:54.539Z,15.20
2022-12-26T07:39:59.264Z,15.65
2022-12-26T07:41:24.827Z,14.46
2022-12-26T07:42:26.809Z,15.30
2022-12-26T07:43:28.586Z,15.55
2022-12-26T07:44:32.773Z,14.24
2022-12-26T07:45:36.099Z,14.42
2022-12-26T07:46:40.129Z,14.63
2022-12-26T07:47:42.050Z,14.75
2022-12-26T07:48:44.374Z,14.68
2022-12-26T07:49:46.661Z,14.58
2022-12-26T07:50:50.113Z,15.03
2022-12-26T07:51:52.415Z,15.81
2022-12-26T07:52:55.392Z,13.71
2022-12-26T07:53:57.544Z,25.26
2022-12-26T07:54:59.404Z,20.51
2022-12-26T07:56:02.214Z,15.97
2022-12-26T07:57:38.224Z,14.91
2022-12-26T07:58:26.797Z,14.49
2022-12-26T07:59:28.686Z,15.51
2022-12-26T08:00:30.600Z,15.52
2022-12-26T08:01:32.591Z,17.01
2022-12-26T08:02:35.077Z,18.07
2022-12-26T08:03:37.276Z,17.19
2022-12-26T08:04:39.336Z,15.66
2022-12-26T08:05:45.323Z,17.53
2022-12-26T08:06:47.688Z,17.81
2022-12-26T08:07:51.074Z,17.97
2022-12-26T08:08:53.054Z,20.38
2022-12-26T08:09:54.921Z,15.73
2022-12-26T08:11:01.970Z,14.91
2022-12-26T08:12:04.253Z,14.57
2022-12-26T08:13:06.364Z,16.14
2022-12-26T08:14:12.127Z,14.70
2022-12-26T08:15:13.901Z,14.61
2022-12-26T08:16:16.135Z,15.02
2022-12-26T08:17:18.717Z,19.95
2022-12-26T08:18:21.099Z,15.60
2022-12-26T08:19:22.968Z,15.20
2022-12-26T08:20:25.152Z,14.16
2022-12-26T08:21:27.052Z,14.66
2022-12-26T08:22:28.909Z,13.99
2022-12-26T08:23:31.838Z,13.74
2022-12-26T08:24:34.139Z,13.40
2022-12-26T08:25:36.109Z,12.68
2022-12-26T08:26:38.042Z,13.57
2022-12-26T08:27:40.062Z,13.61
2022-12-26T08:28:42.285Z,13.41
2022-12-26T08:29:44.151Z,12.40
2022-12-26T08:30:46.909Z,13.31
2022-12-26T08:31:48.753Z,13.57
2022-12-26T08:32:52.054Z,13.04
2022-12-26T08:33:57.200Z,12.85
2022-12-26T08:34:59.101Z,12.72
2022-12-26T08:36:05.902Z,12.30
2022-12-26T08:37:07.706Z,13.15
2022-12-26T08:38:09.656Z,13.27
2022-12-26T08:39:11.569Z,13.78
2022-12-26T08:40:15.565Z,13.50
2022-12-26T08:41:21.441Z,13.29
2022-12-26T08:42:23.467Z,13.24
2022-12-26T08:44:48.784Z,11.97
2022-12-26T08:46:03.810Z,12.59
2022-12-26T08:47:05.860Z,12.29
2022-12-26T08:48:07.667Z,12.34
2022-12-26T08:49:09.696Z,12.13
2022-12-26T08:50:11.805Z,12.29
2022-12-26T08:51:23.160Z,12.98
2022-12-26T08:52:25.210Z,12.09
2022-12-26T08:53:29.326Z,13.49
2022-12-26T08:54:31.555Z,13.31
2022-12-26T08:55:33.513Z,13.27
2022-12-26T08:56:37.115Z,13.91
2022-12-26T08:57:39.156Z,12.34
2022-12-26T08:58:42.137Z,13.18
2022-12-26T08:59:44.047Z,14.15
2022-12-26T09:00:48.164Z,13.32
2022-12-26T09:01:54.532Z,13.54
2022-12-26T09:02:56.584Z,13.08
2022-12-26T09:04:02.204Z,13.20
2022-12-26T09:05:04.836Z,13.11
2022-12-26T09:06:07.187Z,13.84
2022-12-26T09:07:09.685Z,12.57
2022-12-26T09:08:12.291Z,13.48
2022-12-26T09:09:14.492Z,13.74
2022-12-26T09:10:16.662Z,13.98
2022-12-26T09:11:23.212Z,13.76
2022-12-26T09:12:25.876Z,13.13
2022-12-26T09:13:27.972Z,13.54
2022-12-26T09:14:30.903Z,13.21
2022-12-26T09:15:32.901Z,13.89
2022-12-26T09:16:49.354Z,13.07
2022-12-26T09:17:53.068Z,13.12
2022-12-26T09:18:58.028Z,13.62
2022-12-26T09:19:59.848Z,12.55
2022-12-26T09:21:06.176Z,12.80
2022-12-26T09:22:31.954Z,12.17
2022-12-26T09:23:37.382Z,12.99
2022-12-26T09:24:39.389Z,12.65
2022-12-26T09:25:41.448Z,13.11
2022-12-26T09:26:44.577Z,13.55
2022-12-26T09:27:47.026Z,13.16
2022-12-26T09:28:48.964Z,13.35
2022-12-26T09:29:51.284Z,12.76
2022-12-26T09:30:53.321Z,12.74
2022-12-26T09:31:55.880Z,12.84
2022-12-26T09:32:58.102Z,12.79
2022-12-26T09:34:03.463Z,13.40
2022-12-26T09:35:07.019Z,13.50
2022-12-26T09:36:14.877Z,12.60
2022-12-26T09:37:17.154Z,13.04
2022-12-26T09:38:20.577Z,13.04
2022-12-26T09:39:22.549Z,12.85
2022-12-26T09:40:33.432Z,12.58
2022-12-26T09:42:01.514Z,13.08
2022-12-26T09:43:17.424Z,13.06
2022-12-26T09:44:47.406Z,13.12
2022-12-26T09:46:07.415Z,12.84
2022-12-26T09:47:31.826Z,12.36
2022-12-26T09:48:51.948Z,12.44
2022-12-26T09:50:03.885Z,13.17
2022-12-26T09:51:05.969Z,12.66
2022-12-26T09:52:18.026Z,12.64
2022-12-26T09:53:30.444Z,12.39
2022-12-26T09:54:51.132Z,12.12
2022-12-26T09:56:05.832Z,11.77
2022-12-26T09:57:18.496Z,12.63
2022-12-26T09:58:56.483Z,12.64
2022-12-26T10:00:05.622Z,12.02
2022-12-26T10:01:28.955Z,13.12
2022-12-26T10:02:31.582Z,12.02
2022-12-26T10:03:45.163Z,13.06
2022-12-26T10:04:48.167Z,12.35
2022-12-26T10:05:53.155Z,12.66
2022-12-26T10:07:14.842Z,11.77
2022-12-26T10:08:52.276Z,12.65
2022-12-26T10:10:09.435Z,12.44
2022-12-26T10:11:53.499Z,12.56
2022-12-26T10:13:29.082Z,12.43
2022-12-26T10:14:59.797Z,12.35
2022-12-26T10:16:23.444Z,12.76
2022-12-26T10:17:48.613Z,13.53
2022-12-26T10:19:10.013Z,12.41
2022-12-26T10:20:32.815Z,11.67
2022-12-26T10:22:17.771Z,12.26
2022-12-26T10:23:23.017Z,11.70
2022-12-26T10:24:32.769Z,11.40
2022-12-26T10:25:42.335Z,12.02
2022-12-26T10:26:50.075Z,11.72
2022-12-26T10:27:53.071Z,11.40
2022-12-26T10:29:05.862Z,12.52
2022-12-26T10:30:21.169Z,11.82
2022-12-26T10:31:36.041Z,13.71
2022-12-26T10:32:45.526Z,12.76
2022-12-26T10:33:56.190Z,11.44
2022-12-26T10:35:00.289Z,12.57
2022-12-26T10:36:03.006Z,12.95
2022-12-26T10:37:23.935Z,13.35
2022-12-26T10:38:42.992Z,12.07
2022-12-26T10:40:09.541Z,11.51
2022-12-26T10:41:24.612Z,11.50
2022-12-26T10:42:45.253Z,11.64
2022-12-26T10:43:47.574Z,11.52
2022-12-26T10:44:49.379Z,12.06
2022-12-26T10:46:13.640Z,12.34
2022-12-26T10:47:39.544Z,12.26
2022-12-26T10:48:41.503Z,12.30
2022-12-26T10:49:46.557Z,12.23
2022-12-26T10:50:49.690Z,12.00
2022-12-26T10:51:55.472Z,11.75
2022-12-26T10:53:00.000Z,12.58
2022-12-26T10:54:02.931Z,12.77
2022-12-26T10:55:27.955Z,12.67
2022-12-26T10:56:28.283Z,12.69
2022-12-26T10:57:36.297Z,12.65
2022-12-26T10:58:40.274Z,12.56
2022-12-26T10:59:45.100Z,11.57
2022-12-26T11:00:47.726Z,12.71
2022-12-26T11:01:50.503Z,12.60
2022-12-26T11:03:06.453Z,12.23
2022-12-26T11:04:37.678Z,13.06
2022-12-26T11:06:08.956Z,11.94
2022-12-26T11:07:17.211Z,11.74
2022-12-26T11:08:25.431Z,12.25
2022-12-26T11:09:40.803Z,13.22
2022-12-26T11:11:02.015Z,12.99
2022-12-26T11:12:05.647Z,11.97
2022-12-26T11:13:20.557Z,12.83
2022-12-26T11:14:37.931Z,12.31
2022-12-26T11:15:48.191Z,12.24
2022-12-26T11:16:50.374Z,11.59
2022-12-26T11:17:54.256Z,11.67
2022-12-26T11:18:57.463Z,11.01
2022-12-26T11:20:18.613Z,11.64
2022-12-26T11:21:25.578Z,10.47
2022-12-26T11:22:29.992Z,10.92
2022-12-26T11:23:32.789Z,11.42
2022-12-26T11:24:35.008Z,11.48
2022-12-26T11:25:51.876Z,10.19
2022-12-26T11:27:18.487Z,10.19
2022-12-26T11:28:37.827Z,10.31
2022-12-26T11:29:42.775Z,11.63
2022-12-26T11:30:48.673Z,10.72
2022-12-26T11:31:56.539Z,11.49
2022-12-26T11:33:30.584Z,11.42
2022-12-26T11:34:46.259Z,11.23
2022-12-26T11:36:23.451Z,10.92
2022-12-26T11:37:31.579Z,10.70
2022-12-26T11:38:58.136Z,10.38
2022-12-26T11:40:01.643Z,10.68
2022-12-26T11:41:33.543Z,9.30
2022-12-26T11:42:35.707Z,10.59
2022-12-26T11:43:37.911Z,10.52
2022-12-26T11:44:46.349Z,10.66
2022-12-26T11:45:50.625Z,10.22
2022-12-26T11:46:59.265Z,10.14
2022-12-26T11:48:01.620Z,11.04
2022-12-26T11:49:04.561Z,10.84
2022-12-26T11:50:21.663Z,10.97
2022-12-26T11:51:46.203Z,10.17
2022-12-26T11:52:57.658Z,10.19
2022-12-26T11:54:19.930Z,9.88
2022-12-26T11:55:38.890Z,10.10
2022-12-26T11:56:41.379Z,10.12
2022-12-26T11:57:43.124Z,9.54
2022-12-26T11:58:45.033Z,10.12
2022-12-26T11:59:48.753Z,10.28
2022-12-26T12:00:50.525Z,9.34
2022-12-26T12:02:15.876Z,11.14
2022-12-26T12:03:31.128Z,11.58
2022-12-26T12:04:33.298Z,17.29
2022-12-26T12:06:03.861Z,15.05
2022-12-26T12:07:35.922Z,17.84
2022-12-26T12:09:14.660Z,15.71
2022-12-26T12:10:38.371Z,12.28
2022-12-26T12:12:13.066Z,11.59
2022-12-26T12:13:38.271Z,17.07
2022-12-26T12:15:22.401Z,15.30
2022-12-26T12:16:52.422Z,11.62
2022-12-26T12:18:36.651Z,13.05
2022-12-26T12:19:53.589Z,15.04
2022-12-26T12:21:04.621Z,18.58
2022-12-26T12:22:22.945Z,14.58
2022-12-26T12:23:54.030Z,12.47
2022-12-26T12:25:16.393Z,11.00
2022-12-26T12:26:40.645Z,10.15
2022-12-26T12:27:49.264Z,14.37
2022-12-26T12:29:06.483Z,11.32
2022-12-26T12:30:50.762Z,10.37
2022-12-26T12:31:59.018Z,21.33
2022-12-26T12:33:04.276Z,22.39
2022-12-26T12:34:43.979Z,19.24
2022-12-26T12:36:16.666Z,12.41
2022-12-26T12:37:39.810Z,13.21
2022-12-26T12:38:56.575Z,14.08
2022-12-26T12:40:02.114Z,15.83
2022-12-26T12:41:28.712Z,9.35
2022-12-26T12:43:08.601Z,17.85
2022-12-26T12:44:19.652Z,11.43
2022-12-26T12:45:32.550Z,15.84
2022-12-26T12:46:43.929Z,12.55
2022-12-26T12:48:09.468Z,10.00
2022-12-26T12:49:30.410Z,12.85
2022-12-26T12:50:59.894Z,10.82
2022-12-26T12:52:43.714Z,10.36
2022-12-26T12:54:16.804Z,11.89
2022-12-26T12:55:30.933Z,11.59
2022-12-26T12:56:42.024Z,14.39
2022-12-26T12:58:06.105Z,15.21
2022-12-26T12:59:27.035Z,11.34
2022-12-26T13:00:42.503Z,10.61
2022-12-26T13:01:51.007Z,12.32
2022-12-26T13:03:04.543Z,11.43
2022-12-26T13:04:18.599Z,12.19
2022-12-26T13:05:28.472Z,13.79
2022-12-26T13:06:43.824Z,11.95
2022-12-26T13:07:53.362Z,12.25
2022-12-26T13:09:12.279Z,11.14
2022-12-26T13:10:25.311Z,11.47
2022-12-26T13:11:51.388Z,11.61
2022-12-26T13:12:57.245Z,12.07
2022-12-26T13:14:11.434Z,14.30
2022-12-26T13:15:18.989Z,15.03
2022-12-26T13:16:28.752Z,10.78
2022-12-26T13:17:45.504Z,14.44
2022-12-26T13:18:57.029Z,12.53
2022-12-26T13:20:38.230Z,11.31
2022-12-26T13:21:42.301Z,11.81
2022-12-26T13:23:08.386Z,11.61
2022-12-26T13:24:39.266Z,13.34
2022-12-26T13:26:16.671Z,12.89
2022-12-26T13:27:25.817Z,12.59
2022-12-26T13:28:34.278Z,12.25
2022-12-26T13:29:41.046Z,13.74
2022-12-26T13:30:43.524Z,12.34
2022-12-26T13:31:46.928Z,12.26
2022-12-26T13:32:49.103Z,11.84
2022-12-26T13:33:51.223Z,11.51
2022-12-26T13:34:56.534Z,12.09
2022-12-26T13:36:02.058Z,12.11
2022-12-26T13:37:03.852Z,11.19
2022-12-26T13:38:05.735Z,13.42
2022-12-26T13:39:16.719Z,13.74
2022-12-26T13:40:27.368Z,10.73
2022-12-26T13:41:50.486Z,10.67
2022-12-26T13:43:37.808Z,11.87
2022-12-26T13:44:40.484Z,11.02
2022-12-26T13:45:42.288Z,11.16
2022-12-26T13:46:47.125Z,13.09
2022-12-26T13:47:49.033Z,12.84
2022-12-26T13:48:57.946Z,10.99
2022-12-26T13:50:38.982Z,11.36
2022-12-26T13:51:43.519Z,11.68
2022-12-26T13:52:47.610Z,12.46
2022-12-26T13:54:03.044Z,12.75
2022-12-26T13:55:04.948Z,12.86
2022-12-26T13:56:18.784Z,12.42
2022-12-26T13:57:41.138Z,11.53
2022-12-26T13:59:10.718Z,12.22
2022-12-26T14:00:18.026Z,12.16
2022-12-26T14:01:45.565Z,13.01
2022-12-26T14:03:16.548Z,14.52
2022-12-26T14:04:34.744Z,14.01
2022-12-26T14:05:54.952Z,13.21
2022-12-26T14:07:20.111Z,14.75
2022-12-26T14:08:34.505Z,15.86
2022-12-26T14:10:02.127Z,17.76
2022-12-26T14:11:17.230Z,15.84
2022-12-26T14:12:26.855Z,15.86
2022-12-26T14:13:34.476Z,14.68
2022-12-26T14:15:14.232Z,18.58
2022-12-26T14:16:23.983Z,18.31
2022-12-26T14:17:52.042Z,19.53
2022-12-26T14:19:03.581Z,23.74
2022-12-26T14:20:56.999Z,20.49
2022-12-26T14:22:13.588Z,15.48
2022-12-26T14:23:37.872Z,14.96
2022-12-26T14:25:06.525Z,14.74
2022-12-26T14:26:53.955Z,14.74
2022-12-26T14:28:11.369Z,14.50
2022-12-26T14:29:28.399Z,14.63
2022-12-26T14:30:49.351Z,14.37
2022-12-26T14:32:24.128Z,13.06
2022-12-26T14:33:51.783Z,13.34
2022-12-26T14:35:28.760Z,12.09
2022-12-26T14:36:51.252Z,12.93
2022-12-26T14:38:05.735Z,12.08
2022-12-26T14:39:43.436Z,12.18
2022-12-26T14:41:05.501Z,12.58
2022-12-26T14:42:26.632Z,12.62
2022-12-26T14:43:37.913Z,11.82
2022-12-26T14:44:39.683Z,13.50
2022-12-26T14:45:54.367Z,12.14
2022-12-26T14:47:01.028Z,12.52
2022-12-26T14:48:15.302Z,12.12
2022-12-26T14:49:23.613Z,12.63
2022-12-26T14:50:44.068Z,12.63
2022-12-26T14:51:46.665Z,11.79
2022-12-26T14:52:49.922Z,11.66
2022-12-26T14:54:22.481Z,10.93
2022-12-26T14:56:15.834Z,12.17
2022-12-26T14:57:40.165Z,12.21
2022-12-26T14:59:30.648Z,12.34
2022-12-26T15:00:33.527Z,11.53
2022-12-26T15:01:35.692Z,12.84
2022-12-26T15:02:45.149Z,14.98
2022-12-26T15:04:23.522Z,12.52
2022-12-26T15:05:32.156Z,17.28
2022-12-26T15:06:46.315Z,14.10
2022-12-26T15:08:06.718Z,15.13
2022-12-26T15:09:28.531Z,14.28
2022-12-26T15:11:19.117Z,15.27
2022-12-26T15:12:47.702Z,13.34
2022-12-26T15:14:14.602Z,14.24
2022-12-26T15:15:31.794Z,13.59
2022-12-26T15:16:33.648Z,12.94
2022-12-26T15:17:50.615Z,12.14
2022-12-26T15:19:07.881Z,11.64
2022-12-26T15:20:15.487Z,11.37
2022-12-26T15:21:45.659Z,12.85
2022-12-26T15:23:31.773Z,13.28
2022-12-26T15:26:24.484Z,12.34
2022-12-26T15:27:39.245Z,12.83
2022-12-26T15:29:29.081Z,11.78
2022-12-26T15:30:52.484Z,10.84
2022-12-26T15:32:13.015Z,11.35
2022-12-26T15:33:34.648Z,12.98
2022-12-26T15:35:01.800Z,11.83